Adjuster:

Genres

Foreign Language

1980-Present
Only overseas-produced features counted. Re-issues excluded.



Rows: #1-100, #101-200, #201-300, #301-400, #401-500, #501-600, #601-700, #701-800, #801-900, #901-1000, #1001-1100, #1101-1200, #1201-1300, #1301-1400, #1401-1500, #1501-1600, #1601-1700, #1701-1734
RowRankTitle (click to view)StudioLifetime Gross / TheatersOpening / TheatersDate
1 1021 Warriors of Heaven and Earth SPC $82,936 9 $13,721 4 9/3/04
2 1421 Yes Nurse, No Nurse Reg. $13,325 2 $5,324 1 9/3/04
3 3 Hero
(China)
Mira. $53,710,019 2,175 $18,004,319 2,031 8/27/04
4 726 Dhoom
(India)
Yash $245,756 32 $102,860 32 8/27/04
5 469 Red Lights Wells $673,828 29 $3,202 1 8/20/04
6 964 Almost Peaceful Emp. $106,184 3 $10,020 1 8/20/04
7 989 Fida RBF $98,297 30 $98,297 30 8/20/04
8 1377 It's Easier for a Camel NYer $16,150 1 $5,281 1 8/20/04
9 640 Kyon? Ho Gaya Pyu Eros $336,909 51 $171,966 51 8/13/04
10 1673 Anatomy 2 Strand $623 1 $383 1 8/13/04
11 1251 Last Life in the Universe Palm $32,014 4 $5,833 1 8/6/04
12 1303 Bang Rajan Magn. $24,629 4 $4,354 1 8/6/04
13 1628 The Other World Artma $2,494 1 $1,119 1 8/6/04
14 179 Intimate Strangers
(France)
ParC $2,110,589 94 $55,836 5 7/30/04
15 440 Rosenstrasse IDP $734,519 24 n/a - 7/30/04
16 1095 Proteus Strand $62,031 3 $10,047 2 7/30/04
17 1113 Gozu Path. $58,202 4 $5,030 1 7/30/04
18 1130 RRRrrrr!!! Chri. $54,361 23 $54,361 23 7/30/04
19 1367 Transfixed Pict. $17,361 1 $4,268 1 7/30/04
20 1678 Tasuma: The Fighter Artma $479 1 $281 1 7/30/04
21 320 Zatoichi: The Blind Swordsman
(Japan)
Mira. $1,118,163 55 $61,104 4 7/23/04
22 651 Ju-On: The Grudge
(Japan)
Vita. $325,680 11 $25,446 3 7/23/04
23 1349 Asambhav Eros $19,504 15 $19,504 15 7/23/04
24 1647 Free Radicals Kino $1,443 1 $1,443 1 7/23/04
25 48 Maria Full of Grace FL $6,529,624 127 $139,066 7 7/16/04
26 884 Zhou Yu's Train SPC $142,562 12 $22,933 6 7/16/04
27 1069 The Inheritance CGld $68,215 2 $3,270 1 7/9/04
28 961 Bonjour M. Shlomi Strand $107,585 6 $5,999 3 7/2/04
29 1046 Deserted Station FRun $74,791 1 $841 1 7/2/04
30 1643 The Road to Love Arab $1,714 1 $867 1 6/30/04
31 953 Deewaar Eros $111,423 41 $111,423 41 6/25/04
32 432 Lakshya UTV $753,600 59 $380,000 59 6/18/04
33 531 Facing Windows SPC $543,354 27 $36,061 7 6/18/04
34 1211 Father and Son Wells $39,291 3 $4,541 1 6/18/04
35 1018 Dev Eros $84,728 35 $84,728 35 6/11/04
36 416 Hum Tum Yash $796,641 43 $275,882 43 5/28/04
37 559 Strayed
(France)
Wells $482,757 29 $19,531 2 5/14/04
38 700 Valentin Mira. $275,968 15 $14,048 2 5/7/04
39 221 Main Hoon Na
(India)
Eros $1,747,060 79 $704,651 79 4/30/04
40 522 Twilight Samurai
(Japan)
Emp. $559,765 16 $8,573 1 4/23/04
41 239 I'm Not Scared
(Italy)
Mira. $1,615,328 63 $48,292 4 4/9/04
42 156 Spring, Summer, Fall, Winter... and Spring SPC $2,380,788 74 $42,561 6 4/2/04
43 555 Shaolin Soccer
(Hong Kong)
Mira. $489,600 14 $39,167 6 4/2/04
44 1492 I'll Sing for You FRun $9,425 1 $1,225 1 3/26/04
45 149 Bon Voyage SPC $2,503,286 94 $27,480 1 3/19/04
46 992 Distant NYer $96,293 2 $11,280 2 3/12/04
47 1208 La Vie Promise
(France)
Emp. $40,029 2 $6,761 1 3/5/04
48 91 Good Bye, Lenin!
(Germany)
SPC $4,064,200 125 $57,968 6 2/27/04
49 1611 Abouna Leis. $3,290 1 $2,350 1 2/20/04
50 1053 The Seagull's Laughter CGld $72,527 3 $7,791 2 2/13/04
51 1290 After the Life: Trilogy 3 Magn. $27,256 3 $5,198 1 2/13/04
52 291 Osama UA $1,270,904 35 $51,969 4 2/6/04
53 1170 An Amazing Couple: Trilogy 2 Magn. $47,806 2 $8,572 1 2/6/04
54 1076 On the Run: Trilogy 1 Magn. $65,172 4 $8,653 1 1/30/04
55 1395 Millennium Mambo Palm $14,904 1 $4,619 1 12/31/03
56 777 Postmen in the Mountains Shad. $203,975 7 $2,334 1 12/25/03
57 959 Il Cuore Altrove Ode. $108,954 8 $20,107 8 12/19/03
58 1162 Munnabhai Mbbs Eros $48,772 17 $48,772 17 12/19/03
59 133 Monsieur Ibrahim
(France)
SPC $2,823,890 92 $53,174 7 12/3/03
60 200 Nez Rouge Chri. $2,004,814 90 $217,000 32 11/28/03
61 202 Kal Ho Naa Ho Yash $1,991,922 52 $758,211 52 11/26/03
62 1490 El Bonaerense Men. $9,470 1 $5,550 1 11/26/03
63 1654 El Leyton Cn4 $1,332 1 $1,332 1 11/21/03
64 1135 Hukkle Shad. $53,715 4 $2,104 1 11/14/03
65 1443 Love Forbidden Strand $11,421 1 $4,075 1 11/7/03
66 150 Bon Voyage (Canada) TVA $2,503,286 16 $38,682 16 10/17/03
67 807 The Flower of Evil Palm $182,163 16 $12,419 2 10/10/03
68 1062 Small Voices Sml.Isld $69,739 6 $15,166 6 10/10/03
69 197 Sur le Seuil Ode. $2,014,071 61 $514,762 61 10/3/03
70 335 Baghban Eros $1,058,803 50 $345,041 50 10/3/03
71 1041 So Close Strand $76,584 11 $31,702 11 9/12/03
72 748 Kuch Naa Kaho Eros $224,831 32 $92,197 32 9/5/03
73 945 The Other Side of the Bed Sun. $113,543 10 $41,597 10 8/29/03
74 993 Autumn Spring First $96,269 5 $10,046 2 8/22/03
75 1036 Don't Tempt Me First $77,858 5 $15,271 3 8/22/03
76 1461 Rana's Wedding Arab $10,604 1 $3,099 1 8/22/03
77 596 Hawayein Meg. $409,978 5 $37,812 5 8/15/03
78 470 Koi... Mil Gaya Yash $671,372 55 $274,851 55 8/8/03
79 1037 The Princess Blade ADV $77,567 7 $12,618 4 8/8/03
80 1247 Fanfan la Tulipe Chri. $32,686 19 $32,686 19 8/8/03
81 1392 Seaside FRun $15,290 1 $4,736 1 8/6/03
82 710 Lucia, Lucia FoxS $269,586 53 $70,773 49 7/25/03
83 1264 The Sea is Watching SRep $30,577 5 $10,500 5 7/18/03
84 566 The Housekeeper Palm $467,288 24 $42,083 6 7/11/03
85 729 The Cuckoo SPC $243,936 14 $16,473 6 7/11/03
86 1453 Gasoline Strand $11,023 2 $2,885 1 7/2/03
87 299 Main Prem Ki Diwani Hoon
(india)
Raj. $1,232,228 60 $672,891 60 6/27/03
88 574 The Legend of Suriyothai SPC $454,736 22 $45,904 7 6/20/03
89 405 Chalte Chalte Eros $836,225 61 $150,000 22 6/13/03
90 929 Tycoon (2003)
(Russia)
NYer $123,159 3 $13,342 2 6/13/03
91 547 The Eye (2003) Palm $512,049 23 $62,062 13 6/6/03
92 314 Together UA $1,151,941 47 $69,209 6 5/30/03
93 552 Taxi 3 Chri. $497,208 37 $288,000 37 5/30/03
94 963 Bhoot Spk $106,774 19 $60,000 19 5/30/03
95 330 Respiro SPC $1,072,834 32 $71,677 7 5/23/03
96 847 Friday Night Wells $156,918 5 $9,381 3 5/23/03
97 98 L'Auberge Espagnole
(France)
FoxS $3,897,799 100 $59,315 11 5/16/03
98 677 Armaan: The Desire Eros $301,010 50 $225,684 50 5/16/03
99 1291 Everybody Says I'm Fine! Pan. $27,225 3 $3,860 3 5/16/03
100 146 Man on the Train
(France)
ParC $2,542,020 85 $41,138 5 5/9/03
TOTAL (All Movies):$1,808,523,100----
AVERAGE (All Movies):$1,077,78545$127,59125-
TOTAL
(Wide Releases Only):
$444,621,727----
AVERAGE
(Wide Releases Only):
$26,154,2191,313$8,308,2201,585-
Rows: #1-100, #101-200, #201-300, #301-400, #401-500, #501-600, #601-700, #701-800, #801-900, #901-1000, #1001-1100, #1101-1200, #1201-1300, #1301-1400, #1401-1500, #1501-1600, #1601-1700, #1701-1734


If there are any movies that you think should be on this list, e-mail us at mail@boxofficemojo.com.




UPCOMING RELEASES
Title (click to view)StudioRelease Date
Aitraaz Zee 11/12/04
A Tale of Winter (Conte d'hiver) BWP 12/19/14
Two Days, One Night IFC 12/24/14
Leviathan (2014) SPC 12/31/14
Beloved Sisters MBox 1/9/15
It's All So Quiet (Boven is het stil) BWP 1/9/15
The Taking of Tiger Mountain WGUSA 1/16/15
R100 Drft. 1/23/15
Mommy RAtt. 1/23/15
Killers (2015) WGUSA 1/23/15
Timbuktu Cohen 1/28/15
Coming Home (2015) SPC 1/30/15
Wild Tales SPC 2/20/15
Johanna
(Hungary)
Tar. TBD
Abel LGF TBD
When a Wolf Falls in Love with a Sheep N/A TBD
Jolly LLB FIP TBD
Happy New Year (2014) N/A TBD